createdAt,value
2023-04-30T00:00:13.534Z,29.49
2023-04-30T00:01:13.567Z,29.45
2023-04-30T00:02:13.648Z,29.46
2023-04-30T00:03:13.751Z,29.44
2023-04-30T00:04:13.814Z,29.46
2023-04-30T00:05:13.750Z,29.50
2023-04-30T00:06:13.824Z,29.53
2023-04-30T00:07:13.871Z,29.52
2023-04-30T00:08:13.902Z,29.49
2023-04-30T00:09:13.938Z,29.53
2023-04-30T00:10:14.007Z,29.49
2023-04-30T00:11:14.058Z,29.49
2023-04-30T00:12:14.102Z,29.58
2023-04-30T00:13:14.166Z,29.53
2023-04-30T00:14:14.211Z,29.55
2023-04-30T00:15:14.247Z,29.61
2023-04-30T00:16:14.395Z,29.58
2023-04-30T00:17:14.329Z,29.68
2023-04-30T00:18:14.385Z,29.58
2023-04-30T00:19:14.456Z,29.59
2023-04-30T00:20:14.494Z,29.58
2023-04-30T00:21:14.570Z,29.58
2023-04-30T00:22:14.605Z,29.58
2023-04-30T00:23:14.668Z,29.59
2023-04-30T00:24:14.719Z,29.58
2023-04-30T00:25:14.788Z,29.65
2023-04-30T00:26:14.823Z,29.62
2023-04-30T00:27:14.882Z,29.69
2023-04-30T00:28:14.945Z,29.71
2023-04-30T00:29:15.004Z,29.65
2023-04-30T00:30:15.071Z,29.63
2023-04-30T00:31:15.116Z,29.67
2023-04-30T00:32:15.393Z,29.71
2023-04-30T00:33:15.272Z,29.63
2023-04-30T00:34:15.290Z,29.60
2023-04-30T00:35:15.388Z,29.68
2023-04-30T00:36:15.383Z,29.71
2023-04-30T00:37:15.445Z,29.76
2023-04-30T00:38:15.530Z,29.67
2023-04-30T00:39:15.541Z,29.72
2023-04-30T00:40:15.588Z,29.73
2023-04-30T00:41:15.647Z,29.76
2023-04-30T00:42:15.707Z,29.71
2023-04-30T00:43:15.785Z,29.77
2023-04-30T00:44:15.805Z,29.76
2023-04-30T00:45:15.860Z,29.69
2023-04-30T00:46:15.972Z,29.79
2023-04-30T00:47:16.000Z,29.76
2023-04-30T00:48:16.054Z,29.73
2023-04-30T00:49:16.106Z,29.82
2023-04-30T00:50:16.294Z,29.80
2023-04-30T00:51:16.226Z,29.75
2023-04-30T00:52:16.290Z,29.78
2023-04-30T00:53:16.353Z,29.78
2023-04-30T00:54:16.411Z,29.82
2023-04-30T00:55:16.455Z,29.83
2023-04-30T00:56:16.545Z,29.85
2023-04-30T00:57:16.590Z,29.81
2023-04-30T00:58:16.660Z,29.77
2023-04-30T00:59:16.692Z,29.85
2023-04-30T01:00:16.761Z,29.88
2023-04-30T01:01:16.837Z,29.94
2023-04-30T01:02:16.904Z,29.86
2023-04-30T01:03:17.076Z,29.80
2023-04-30T01:04:17.001Z,29.89
2023-04-30T01:05:17.059Z,29.89
2023-04-30T01:06:17.153Z,29.89
2023-04-30T01:07:17.167Z,29.83
2023-04-30T01:08:17.236Z,29.83
2023-04-30T01:09:17.304Z,29.86
2023-04-30T01:10:17.349Z,29.91
2023-04-30T01:11:17.427Z,29.86
2023-04-30T01:12:17.458Z,29.91
2023-04-30T01:13:17.527Z,29.89
2023-04-30T01:14:17.581Z,29.97
2023-04-30T01:15:17.622Z,29.95
2023-04-30T01:16:17.743Z,29.95
2023-04-30T01:17:17.734Z,29.93
2023-04-30T01:18:17.887Z,29.97
2023-04-30T01:19:17.876Z,29.91
2023-04-30T01:20:17.923Z,29.86
2023-04-30T01:21:17.988Z,29.98
2023-04-30T01:22:18.053Z,29.91
2023-04-30T01:23:18.111Z,29.92
2023-04-30T01:24:18.184Z,29.91
2023-04-30T01:25:18.319Z,29.91
2023-04-30T01:26:18.303Z,30.01
2023-04-30T01:27:18.338Z,30.02
2023-04-30T01:28:18.398Z,30.01
2023-04-30T01:29:18.489Z,29.99
2023-04-30T01:30:18.617Z,29.98
2023-04-30T01:31:18.576Z,29.96
2023-04-30T01:32:18.630Z,29.96
2023-04-30T01:33:18.670Z,29.98
2023-04-30T01:34:18.755Z,29.95
2023-04-30T01:35:18.784Z,29.99
2023-04-30T01:36:18.845Z,29.95
2023-04-30T01:37:18.890Z,30.08
2023-04-30T01:38:18.948Z,30.05
2023-04-30T01:39:19.007Z,30.09
2023-04-30T01:40:19.051Z,30.04
2023-04-30T01:41:19.105Z,30.03
2023-04-30T01:42:19.159Z,30.04
2023-04-30T01:43:19.242Z,30.02
2023-04-30T01:44:19.278Z,30.05
2023-04-30T01:45:19.324Z,29.97
2023-04-30T01:46:19.410Z,30.05
2023-04-30T01:47:19.439Z,30.02
2023-04-30T01:48:19.498Z,30.01
2023-04-30T01:49:19.595Z,30.06
2023-04-30T01:50:19.612Z,30.12
2023-04-30T01:51:19.664Z,30.06
2023-04-30T01:52:19.721Z,30.15
2023-04-30T01:53:19.777Z,30.15
2023-04-30T01:54:19.817Z,30.09
2023-04-30T01:55:19.889Z,30.06
2023-04-30T01:56:19.930Z,30.10
2023-04-30T01:57:19.997Z,30.14
2023-04-30T01:58:20.056Z,30.18
2023-04-30T01:59:20.120Z,30.15
2023-04-30T02:00:20.157Z,30.14
2023-04-30T02:01:20.235Z,30.18
2023-04-30T02:02:20.326Z,30.22
2023-04-30T02:03:20.381Z,30.21
2023-04-30T02:04:20.368Z,30.24
2023-04-30T02:05:20.439Z,30.24
2023-04-30T02:06:20.668Z,30.19
2023-04-30T02:07:20.533Z,30.10
2023-04-30T02:08:20.614Z,30.12
2023-04-30T02:09:20.674Z,30.18
2023-04-30T02:10:20.713Z,30.18
2023-04-30T02:11:20.773Z,30.18
2023-04-30T02:12:20.823Z,30.15
2023-04-30T02:13:20.868Z,30.22
2023-04-30T02:14:20.935Z,30.16
2023-04-30T02:15:20.976Z,30.16
2023-04-30T02:16:21.095Z,30.15
2023-04-30T02:17:21.086Z,30.18
2023-04-30T02:18:21.178Z,30.22
2023-04-30T02:19:21.199Z,30.18
2023-04-30T02:20:21.213Z,30.22
2023-04-30T02:21:21.290Z,30.22
2023-04-30T02:22:21.286Z,30.21
2023-04-30T02:23:21.341Z,30.24
2023-04-30T02:24:21.362Z,30.28
2023-04-30T02:25:21.407Z,30.31
2023-04-30T02:26:21.446Z,30.34
2023-04-30T02:27:21.484Z,30.22
2023-04-30T02:28:21.518Z,30.19
2023-04-30T02:29:21.557Z,30.22
2023-04-30T02:30:21.622Z,30.27
2023-04-30T02:31:21.666Z,30.26
2023-04-30T02:32:21.703Z,30.34
2023-04-30T02:33:21.736Z,30.26
2023-04-30T02:34:21.751Z,30.32
2023-04-30T02:35:21.782Z,30.31
2023-04-30T02:36:21.864Z,30.31
2023-04-30T02:37:21.914Z,30.29
2023-04-30T02:38:21.912Z,30.32
2023-04-30T02:39:21.957Z,30.31
2023-04-30T02:40:21.999Z,30.34
2023-04-30T02:41:22.054Z,30.28
2023-04-30T02:42:22.089Z,30.22
2023-04-30T02:43:22.115Z,30.31
2023-04-30T02:44:22.160Z,30.32
2023-04-30T02:45:22.176Z,30.34
2023-04-30T02:46:22.338Z,30.35
2023-04-30T02:47:22.303Z,30.34
2023-04-30T02:48:22.290Z,30.41
2023-04-30T02:49:22.338Z,30.29
2023-04-30T02:50:22.373Z,30.31
2023-04-30T02:51:22.415Z,30.25
2023-04-30T02:52:22.436Z,30.38
2023-04-30T02:53:22.445Z,30.34
2023-04-30T02:54:22.580Z,30.36
2023-04-30T02:55:22.538Z,30.40
2023-04-30T02:56:22.573Z,30.34
2023-04-30T02:57:22.610Z,30.36
2023-04-30T02:58:22.652Z,30.32
2023-04-30T02:59:22.687Z,30.40
2023-04-30T03:00:22.735Z,30.38
2023-04-30T03:01:22.799Z,30.35
2023-04-30T03:02:22.881Z,30.40
2023-04-30T03:03:22.964Z,30.34
2023-04-30T03:04:22.920Z,30.36
2023-04-30T03:05:22.981Z,30.42
2023-04-30T03:06:23.038Z,30.44
2023-04-30T03:07:23.053Z,30.44
2023-04-30T03:08:23.074Z,30.38
2023-04-30T03:09:23.116Z,30.36
2023-04-30T03:10:23.123Z,30.42
2023-04-30T03:11:23.170Z,30.36
2023-04-30T03:12:23.173Z,30.40
2023-04-30T03:13:23.218Z,30.42
2023-04-30T03:14:23.237Z,30.41
2023-04-30T03:15:23.227Z,30.42
2023-04-30T03:16:23.296Z,30.46
2023-04-30T03:17:23.348Z,30.42
2023-04-30T03:18:23.307Z,30.39
2023-04-30T03:19:23.338Z,30.42
2023-04-30T03:20:23.373Z,30.41
2023-04-30T03:21:23.370Z,30.47
2023-04-30T03:22:23.382Z,30.48
2023-04-30T03:23:23.411Z,30.44
2023-04-30T03:24:23.446Z,30.47
2023-04-30T03:25:23.466Z,30.47
2023-04-30T03:26:23.458Z,30.48
2023-04-30T03:27:23.468Z,30.53
2023-04-30T03:28:23.500Z,30.45
2023-04-30T03:29:23.538Z,30.44
2023-04-30T03:30:23.535Z,30.43
2023-04-30T03:31:23.581Z,30.44
2023-04-30T03:32:23.671Z,30.48
2023-04-30T03:33:23.631Z,30.40
2023-04-30T03:34:23.616Z,30.47
2023-04-30T03:35:23.629Z,30.48
2023-04-30T03:36:23.684Z,30.46
2023-04-30T03:37:23.690Z,30.40
2023-04-30T03:38:23.708Z,30.44
2023-04-30T03:39:23.761Z,30.51
2023-04-30T03:40:23.783Z,30.48
2023-04-30T03:41:23.791Z,30.49
2023-04-30T03:42:23.804Z,30.43
2023-04-30T03:43:23.825Z,30.42
2023-04-30T03:44:23.844Z,30.45
2023-04-30T03:45:23.866Z,30.45
2023-04-30T03:46:23.931Z,30.39
2023-04-30T03:47:23.940Z,30.36
2023-04-30T03:48:23.954Z,30.37
2023-04-30T03:49:23.977Z,30.30
2023-04-30T03:50:24.011Z,30.30
2023-04-30T03:51:24.047Z,30.34
2023-04-30T03:52:24.081Z,30.25
2023-04-30T03:53:24.099Z,30.29
2023-04-30T03:54:24.114Z,30.28
2023-04-30T03:55:24.131Z,30.20
2023-04-30T03:56:24.149Z,30.23
2023-04-30T03:57:24.166Z,30.23
2023-04-30T03:58:24.176Z,30.20
2023-04-30T03:59:24.181Z,30.21
2023-04-30T04:00:24.198Z,30.17
2023-04-30T04:01:24.217Z,30.16
2023-04-30T04:02:24.369Z,30.19
2023-04-30T04:03:24.293Z,30.23
2023-04-30T04:04:24.393Z,30.22
2023-04-30T04:05:24.360Z,30.13
2023-04-30T04:06:24.415Z,30.20
2023-04-30T04:07:24.441Z,30.16
2023-04-30T04:08:24.466Z,30.16
2023-04-30T04:09:24.523Z,30.20
2023-04-30T04:10:24.549Z,30.19
2023-04-30T04:11:24.567Z,30.16
2023-04-30T04:12:24.607Z,30.19
2023-04-30T04:13:24.623Z,30.15
2023-04-30T04:14:24.651Z,30.21
2023-04-30T04:15:24.681Z,30.18
2023-04-30T04:16:24.753Z,30.16
2023-04-30T04:17:24.760Z,30.20
2023-04-30T04:18:24.744Z,30.13
2023-04-30T04:19:24.770Z,30.12
2023-04-30T04:20:24.797Z,30.22
2023-04-30T04:21:24.846Z,30.16
2023-04-30T04:22:24.866Z,30.15
2023-04-30T04:23:24.906Z,30.18
2023-04-30T04:24:24.935Z,30.12
2023-04-30T04:25:24.973Z,30.16
2023-04-30T04:26:25.017Z,30.09
2023-04-30T04:27:25.065Z,30.14
2023-04-30T04:28:25.139Z,30.13
2023-04-30T04:29:25.169Z,30.08
2023-04-30T04:30:25.209Z,30.08
2023-04-30T04:31:25.289Z,30.15
2023-04-30T04:32:25.356Z,30.15
2023-04-30T04:33:25.373Z,30.12
2023-04-30T04:34:25.408Z,30.01
2023-04-30T04:35:25.462Z,30.12
2023-04-30T04:36:25.499Z,30.08
2023-04-30T04:37:25.528Z,30.11
2023-04-30T04:38:25.546Z,30.08
2023-04-30T04:39:25.569Z,30.06
2023-04-30T04:40:25.604Z,30.07
2023-04-30T04:41:25.678Z,30.01
2023-04-30T04:42:25.725Z,30.01
2023-04-30T04:43:25.740Z,30.05
2023-04-30T04:44:25.783Z,30.01
2023-04-30T04:45:25.827Z,29.95
2023-04-30T04:46:25.966Z,29.98
2023-04-30T04:47:25.948Z,29.96
2023-04-30T04:48:25.970Z,29.95
2023-04-30T04:49:26.024Z,29.92
2023-04-30T04:50:26.096Z,29.99
2023-04-30T04:51:26.120Z,29.98
2023-04-30T04:52:26.174Z,29.92
2023-04-30T04:53:26.218Z,29.98
2023-04-30T04:54:26.238Z,29.97
2023-04-30T04:55:26.293Z,29.97
2023-04-30T04:56:26.346Z,29.92
2023-04-30T04:57:26.365Z,29.88
2023-04-30T04:58:26.448Z,29.86
2023-04-30T04:59:26.483Z,29.90
2023-04-30T05:00:26.521Z,29.91
2023-04-30T05:01:26.587Z,29.89
2023-04-30T05:02:26.708Z,29.87
2023-04-30T05:03:26.731Z,29.85
2023-04-30T05:04:26.685Z,29.86
2023-04-30T05:05:26.741Z,29.77
2023-04-30T05:06:26.894Z,29.79
2023-04-30T05:07:26.846Z,29.80
2023-04-30T05:08:26.874Z,29.73
2023-04-30T05:09:26.950Z,29.77
2023-04-30T05:10:26.997Z,29.79
2023-04-30T05:11:27.056Z,29.73
2023-04-30T05:12:27.114Z,29.72
2023-04-30T05:13:27.162Z,29.75
2023-04-30T05:14:27.210Z,29.72
2023-04-30T05:15:27.278Z,29.70
2023-04-30T05:16:27.369Z,29.70
2023-04-30T05:17:27.441Z,29.69
2023-04-30T05:18:27.445Z,29.64
2023-04-30T05:19:27.522Z,29.66
2023-04-30T05:20:27.565Z,29.63
2023-04-30T05:21:27.620Z,29.57
2023-04-30T05:22:27.669Z,29.61
2023-04-30T05:23:27.730Z,29.59
2023-04-30T05:24:27.801Z,29.60
2023-04-30T05:25:27.848Z,29.55
2023-04-30T05:26:27.913Z,29.60
2023-04-30T05:27:27.974Z,29.57
2023-04-30T05:28:28.018Z,29.56
2023-04-30T05:29:28.074Z,29.53
2023-04-30T05:30:28.136Z,29.48
2023-04-30T05:31:28.241Z,29.51
2023-04-30T05:32:28.278Z,29.48
2023-04-30T05:33:28.319Z,29.51
2023-04-30T05:34:28.375Z,29.50
2023-04-30T05:35:28.422Z,29.48
2023-04-30T05:36:28.487Z,29.44
2023-04-30T05:37:28.571Z,29.39
2023-04-30T05:38:28.607Z,29.47
2023-04-30T05:39:28.661Z,29.41
2023-04-30T05:40:28.704Z,29.40
2023-04-30T05:41:28.791Z,29.43
2023-04-30T05:42:28.859Z,29.38
2023-04-30T05:43:28.942Z,29.40
2023-04-30T05:44:28.967Z,29.44
2023-04-30T05:45:29.092Z,29.40
2023-04-30T05:46:29.186Z,29.37
2023-04-30T05:47:29.135Z,29.37
2023-04-30T05:48:29.205Z,29.37
2023-04-30T05:49:29.262Z,29.32
2023-04-30T05:50:29.333Z,29.28
2023-04-30T05:51:29.374Z,29.34
2023-04-30T05:52:29.429Z,29.29
2023-04-30T05:53:29.477Z,29.29
2023-04-30T05:54:29.550Z,29.28
2023-04-30T05:55:29.602Z,29.24
2023-04-30T05:56:29.687Z,29.30
2023-04-30T05:57:29.719Z,29.21
2023-04-30T05:58:29.777Z,29.22
2023-04-30T05:59:29.874Z,29.25
2023-04-30T06:00:29.913Z,29.25
2023-04-30T06:01:29.979Z,29.23
2023-04-30T06:02:30.171Z,29.24
2023-04-30T06:03:30.045Z,29.17
2023-04-30T06:04:30.113Z,29.23
2023-04-30T06:05:30.260Z,29.21
2023-04-30T06:06:30.278Z,29.20
2023-04-30T06:07:30.278Z,29.21
2023-04-30T06:08:30.326Z,29.15
2023-04-30T06:09:30.394Z,29.17
2023-04-30T06:10:30.455Z,29.17
2023-04-30T06:11:30.506Z,29.17
2023-04-30T06:12:30.572Z,29.14
2023-04-30T06:13:30.617Z,29.17
2023-04-30T06:14:30.669Z,29.14
2023-04-30T06:15:30.715Z,29.17
2023-04-30T06:16:30.823Z,29.12
2023-04-30T06:17:30.884Z,29.17
2023-04-30T06:18:30.907Z,29.17
2023-04-30T06:19:30.959Z,29.08
2023-04-30T06:20:31.003Z,29.11
2023-04-30T06:21:31.076Z,29.10
2023-04-30T06:22:31.132Z,29.11
2023-04-30T06:23:31.169Z,29.12
2023-04-30T06:24:31.227Z,29.07
2023-04-30T06:25:31.269Z,29.07
2023-04-30T06:26:31.323Z,29.05
2023-04-30T06:27:31.380Z,29.11
2023-04-30T06:28:31.423Z,29.10
2023-04-30T06:29:31.490Z,28.99
2023-04-30T06:30:31.585Z,29.01
2023-04-30T06:31:31.617Z,29.07
2023-04-30T06:32:31.650Z,29.01
2023-04-30T06:33:31.664Z,29.01
2023-04-30T06:34:31.725Z,29.05
2023-04-30T06:35:31.760Z,29.01
2023-04-30T06:36:31.839Z,29.05
2023-04-30T06:37:33.471Z,29.04
2023-04-30T06:38:31.906Z,28.99
2023-04-30T06:39:31.975Z,28.95
2023-04-30T06:40:32.009Z,29.00
2023-04-30T06:41:32.064Z,29.00
2023-04-30T06:42:32.113Z,29.00
2023-04-30T06:43:32.164Z,29.03
2023-04-30T06:44:32.191Z,29.01
2023-04-30T06:45:32.270Z,28.97
2023-04-30T06:46:32.368Z,29.01
2023-04-30T06:47:32.365Z,29.00
2023-04-30T06:48:32.420Z,29.00
2023-04-30T06:49:32.475Z,28.95
2023-04-30T06:50:32.512Z,28.98
2023-04-30T06:51:32.564Z,28.97
2023-04-30T06:52:32.619Z,28.95
2023-04-30T06:53:32.659Z,28.94
2023-04-30T06:54:32.704Z,28.94
2023-04-30T06:55:32.759Z,28.96
2023-04-30T06:56:32.797Z,28.94
2023-04-30T06:57:32.841Z,28.90
2023-04-30T06:58:32.940Z,28.90
2023-04-30T06:59:32.948Z,28.90
2023-04-30T07:00:32.972Z,28.90
2023-04-30T07:01:33.036Z,28.88
2023-04-30T07:02:33.131Z,28.88
2023-04-30T07:03:33.231Z,28.87
2023-04-30T07:04:33.182Z,28.88
2023-04-30T07:05:33.222Z,28.91
2023-04-30T07:06:33.299Z,28.87
2023-04-30T07:07:33.304Z,28.86
2023-04-30T07:08:33.326Z,28.87
2023-04-30T07:09:33.391Z,28.80
2023-04-30T07:10:33.424Z,28.81
2023-04-30T07:11:33.442Z,28.80
2023-04-30T07:12:33.510Z,28.82
2023-04-30T07:13:33.539Z,28.79
2023-04-30T07:14:33.574Z,28.80
2023-04-30T07:15:33.652Z,28.80
2023-04-30T07:16:33.817Z,28.76
2023-04-30T07:17:33.694Z,28.79
2023-04-30T07:18:33.731Z,28.80
2023-04-30T07:19:33.764Z,28.77
2023-04-30T07:20:33.807Z,28.79
2023-04-30T07:21:33.821Z,28.79
2023-04-30T07:22:33.866Z,28.82
2023-04-30T07:23:33.896Z,28.80
2023-04-30T07:24:33.923Z,28.77
2023-04-30T07:25:33.959Z,28.82
2023-04-30T07:26:34.009Z,28.79
2023-04-30T07:27:34.057Z,28.80
2023-04-30T07:28:34.078Z,28.77
2023-04-30T07:29:34.095Z,28.80
2023-04-30T07:30:34.141Z,28.79
2023-04-30T07:31:34.232Z,28.80
2023-04-30T07:32:34.228Z,28.74
2023-04-30T07:33:34.236Z,28.82
2023-04-30T07:34:34.269Z,28.77
2023-04-30T07:35:34.299Z,28.79
2023-04-30T07:36:34.342Z,28.76
2023-04-30T07:37:36.044Z,28.74
2023-04-30T07:38:34.390Z,28.79
2023-04-30T07:39:34.422Z,28.72
2023-04-30T07:40:36.430Z,28.73
2023-04-30T07:41:34.506Z,28.78
2023-04-30T07:42:34.519Z,28.73
2023-04-30T07:43:34.582Z,28.70
2023-04-30T07:44:34.599Z,28.78
2023-04-30T07:45:34.626Z,28.76
2023-04-30T07:46:34.716Z,28.74
2023-04-30T07:47:34.717Z,28.72
2023-04-30T07:48:34.731Z,28.72
2023-04-30T07:49:34.763Z,28.73
2023-04-30T07:50:34.797Z,28.70
2023-04-30T07:51:34.827Z,28.68
2023-04-30T07:52:34.862Z,28.66
2023-04-30T07:53:34.894Z,28.72
2023-04-30T07:54:34.925Z,28.68
2023-04-30T07:55:34.959Z,28.70
2023-04-30T07:56:34.987Z,28.70
2023-04-30T07:57:34.997Z,28.66
2023-04-30T07:58:35.021Z,28.67
2023-04-30T07:59:35.049Z,28.70
2023-04-30T08:00:35.082Z,28.72
2023-04-30T08:01:35.146Z,28.63
2023-04-30T08:02:35.254Z,28.64
2023-04-30T08:03:35.368Z,28.66
2023-04-30T08:04:35.365Z,28.64
2023-04-30T08:05:35.213Z,28.65
2023-04-30T08:06:35.279Z,28.69
2023-04-30T08:07:35.261Z,28.65
2023-04-30T08:08:35.276Z,28.60
2023-04-30T08:09:35.343Z,28.60
2023-04-30T08:10:35.328Z,28.60
2023-04-30T08:11:35.365Z,28.59
2023-04-30T08:12:35.377Z,28.60
2023-04-30T08:13:35.401Z,28.62
2023-04-30T08:14:35.421Z,28.59
2023-04-30T08:15:35.445Z,28.61
2023-04-30T08:16:35.528Z,28.55
2023-04-30T08:17:35.557Z,28.52
2023-04-30T08:18:35.531Z,28.49
2023-04-30T08:19:35.562Z,28.52
2023-04-30T08:20:36.553Z,28.53
2023-04-30T08:21:35.607Z,28.52
2023-04-30T08:22:35.637Z,28.53
2023-04-30T08:23:35.635Z,28.49
2023-04-30T08:24:35.669Z,28.46
2023-04-30T08:25:35.708Z,28.43
2023-04-30T08:26:35.721Z,28.46
2023-04-30T08:27:35.749Z,28.43
2023-04-30T08:28:35.770Z,28.38
2023-04-30T08:29:35.797Z,28.37
2023-04-30T08:30:35.880Z,28.37
2023-04-30T08:31:35.897Z,28.40
2023-04-30T08:32:35.987Z,28.38
2023-04-30T08:33:35.871Z,28.36
2023-04-30T08:34:35.906Z,28.42
2023-04-30T08:35:35.946Z,28.37
2023-04-30T08:36:35.937Z,28.37
2023-04-30T08:37:35.987Z,28.40
2023-04-30T08:38:35.996Z,28.29
2023-04-30T08:39:36.022Z,28.30
2023-04-30T08:40:50.337Z,28.31
2023-04-30T08:41:37.048Z,28.30
2023-04-30T08:42:36.059Z,28.25
2023-04-30T08:43:36.036Z,28.27
2023-04-30T08:44:36.015Z,28.26
2023-04-30T08:45:36.003Z,28.30
2023-04-30T08:46:36.149Z,28.23
2023-04-30T08:47:36.014Z,28.26
2023-04-30T08:48:35.981Z,28.29
2023-04-30T08:49:35.991Z,28.26
2023-04-30T08:50:35.999Z,28.29
2023-04-30T08:51:35.981Z,28.29
2023-04-30T08:52:35.972Z,28.26
2023-04-30T08:53:35.951Z,28.26
2023-04-30T08:54:35.950Z,28.29
2023-04-30T08:55:35.958Z,28.28
2023-04-30T08:56:35.946Z,28.26
2023-04-30T08:57:35.939Z,28.31
2023-04-30T08:58:35.924Z,28.29
2023-04-30T08:59:35.932Z,28.25
2023-04-30T09:00:35.909Z,28.23
2023-04-30T09:01:35.947Z,28.23
2023-04-30T09:02:35.968Z,28.25
2023-04-30T09:03:36.083Z,28.23
2023-04-30T09:04:35.879Z,28.26
2023-04-30T09:05:35.869Z,28.28
2023-04-30T09:06:35.923Z,28.28
2023-04-30T09:07:35.887Z,28.22
2023-04-30T09:08:35.882Z,28.22
2023-04-30T09:09:35.908Z,28.19
2023-04-30T09:10:35.921Z,28.17
2023-04-30T09:11:35.906Z,28.17
2023-04-30T09:12:35.953Z,28.18
2023-04-30T09:13:35.928Z,28.14
2023-04-30T09:14:35.941Z,28.18
2023-04-30T09:15:35.976Z,28.09
2023-04-30T09:16:36.041Z,28.15
2023-04-30T09:17:36.040Z,28.10
2023-04-30T09:18:35.991Z,28.14
2023-04-30T09:19:36.004Z,28.05
2023-04-30T09:20:35.992Z,28.07
2023-04-30T09:21:36.004Z,28.13
2023-04-30T09:22:36.371Z,28.14
2023-04-30T09:23:36.005Z,28.07
2023-04-30T09:24:36.009Z,28.08
2023-04-30T09:25:36.028Z,28.04
2023-04-30T09:26:36.045Z,28.06
2023-04-30T09:27:36.050Z,28.04
2023-04-30T09:28:36.009Z,28.04
2023-04-30T09:29:36.036Z,28.03
2023-04-30T09:30:36.035Z,27.97
2023-04-30T09:31:36.068Z,27.97
2023-04-30T09:32:36.106Z,27.97
2023-04-30T09:33:36.026Z,27.94
2023-04-30T09:34:36.017Z,27.91
2023-04-30T09:35:36.030Z,27.89
2023-04-30T09:36:36.031Z,27.89
2023-04-30T09:37:36.073Z,27.86
2023-04-30T09:38:36.094Z,27.83
2023-04-30T09:39:36.110Z,27.75
2023-04-30T09:40:36.154Z,27.73
2023-04-30T09:41:36.207Z,27.73
2023-04-30T09:42:36.283Z,27.75
2023-04-30T09:43:36.289Z,27.72
2023-04-30T09:44:36.341Z,27.68
2023-04-30T09:45:36.391Z,27.68
2023-04-30T09:46:36.446Z,27.65
2023-04-30T09:47:36.526Z,27.65
2023-04-30T09:48:36.552Z,27.60
2023-04-30T09:49:36.591Z,27.68
2023-04-30T09:50:36.630Z,27.56
2023-04-30T09:51:36.692Z,27.58
2023-04-30T09:52:36.762Z,27.54
2023-04-30T09:53:36.822Z,27.58
2023-04-30T09:54:36.834Z,27.55
2023-04-30T09:55:36.898Z,27.49
2023-04-30T09:56:36.949Z,27.55
2023-04-30T09:57:37.020Z,27.51
2023-04-30T09:58:37.093Z,27.48
2023-04-30T09:59:37.123Z,27.41
2023-04-30T10:00:37.221Z,27.39
2023-04-30T10:01:39.623Z,27.42
2023-04-30T10:02:37.293Z,27.37
2023-04-30T10:03:37.259Z,27.37
2023-04-30T10:04:37.214Z,27.40
2023-04-30T10:05:37.224Z,27.38
2023-04-30T10:06:37.378Z,27.40
2023-04-30T10:07:37.224Z,27.36
2023-04-30T10:08:37.197Z,27.36
2023-04-30T10:09:37.189Z,27.24
2023-04-30T10:10:37.171Z,27.24
2023-04-30T10:11:37.177Z,27.26
2023-04-30T10:12:37.170Z,27.17
2023-04-30T10:13:37.169Z,27.23
2023-04-30T10:14:37.149Z,27.20
2023-04-30T10:15:37.135Z,27.18
2023-04-30T10:16:37.224Z,27.17
2023-04-30T10:17:37.196Z,27.16
2023-04-30T10:18:37.122Z,27.16
2023-04-30T10:19:37.129Z,27.17
2023-04-30T10:20:37.124Z,27.14
2023-04-30T10:21:37.107Z,27.19
2023-04-30T10:22:37.098Z,27.13
2023-04-30T10:23:37.080Z,27.10
2023-04-30T10:24:37.075Z,27.06
2023-04-30T10:25:37.081Z,27.00
2023-04-30T10:26:37.084Z,26.99
2023-04-30T10:27:37.079Z,26.98
2023-04-30T10:28:37.045Z,26.90
2023-04-30T10:29:37.055Z,26.94
2023-04-30T10:30:37.048Z,26.94
2023-04-30T10:31:37.076Z,26.94
2023-04-30T10:32:37.055Z,26.94
2023-04-30T10:33:37.018Z,26.92
2023-04-30T10:34:37.014Z,26.94
2023-04-30T10:35:37.017Z,26.94
2023-04-30T10:36:37.088Z,26.90
2023-04-30T10:37:37.080Z,26.87
2023-04-30T10:38:37.113Z,26.87
2023-04-30T10:39:37.164Z,26.84
2023-04-30T10:40:37.185Z,26.87
2023-04-30T10:41:37.207Z,26.91
2023-04-30T10:42:37.238Z,26.93
2023-04-30T10:43:37.264Z,26.91
2023-04-30T10:44:37.337Z,26.95
2023-04-30T10:45:37.386Z,26.92
2023-04-30T10:46:37.434Z,26.93
2023-04-30T10:47:37.439Z,26.91
2023-04-30T10:48:37.442Z,26.97
2023-04-30T10:49:37.483Z,26.91
2023-04-30T10:50:37.495Z,26.91
2023-04-30T10:51:37.544Z,26.93
2023-04-30T10:52:37.574Z,26.94
2023-04-30T10:53:37.616Z,27.00
2023-04-30T10:54:37.666Z,27.02
2023-04-30T10:55:37.659Z,27.04
2023-04-30T10:56:37.713Z,27.02
2023-04-30T10:57:37.742Z,27.04
2023-04-30T10:58:37.783Z,27.01
2023-04-30T10:59:37.810Z,26.99
2023-04-30T11:00:37.849Z,26.98
2023-04-30T11:01:37.926Z,27.08
2023-04-30T11:02:37.967Z,27.09
2023-04-30T11:03:37.978Z,27.08
2023-04-30T11:04:38.014Z,26.99
2023-04-30T11:05:38.042Z,27.03
2023-04-30T11:06:38.146Z,27.06
2023-04-30T11:07:38.142Z,27.07
2023-04-30T11:08:38.169Z,27.08
2023-04-30T11:09:38.202Z,27.09
2023-04-30T11:10:38.260Z,27.07
2023-04-30T11:11:38.284Z,27.04
2023-04-30T11:12:38.369Z,27.07
2023-04-30T11:13:38.371Z,27.06
2023-04-30T11:14:38.419Z,27.04
2023-04-30T11:15:38.509Z,27.09
2023-04-30T11:16:38.633Z,27.04
2023-04-30T11:17:38.608Z,27.03
2023-04-30T11:18:38.617Z,27.07
2023-04-30T11:19:38.661Z,27.01
2023-04-30T11:20:38.681Z,27.03
2023-04-30T11:21:38.732Z,26.94
2023-04-30T11:22:38.809Z,26.97
2023-04-30T11:23:41.941Z,26.91
2023-04-30T11:24:38.801Z,26.87
2023-04-30T11:25:38.793Z,26.84
2023-04-30T11:26:38.805Z,26.75
2023-04-30T11:27:38.827Z,26.72
2023-04-30T11:28:38.795Z,26.80
2023-04-30T11:29:38.817Z,26.80
2023-04-30T11:30:38.771Z,26.76
2023-04-30T11:31:38.827Z,26.68
2023-04-30T11:32:38.779Z,26.71
2023-04-30T11:33:38.754Z,26.62
2023-04-30T11:34:38.750Z,26.65
2023-04-30T11:35:38.821Z,26.59
2023-04-30T11:36:38.714Z,26.64
2023-04-30T11:37:38.715Z,26.64
2023-04-30T11:38:38.710Z,26.58
2023-04-30T11:39:38.695Z,26.55
2023-04-30T11:40:38.682Z,26.60
2023-04-30T11:41:38.692Z,26.52
2023-04-30T11:42:38.689Z,26.58
2023-04-30T11:43:38.676Z,26.56
2023-04-30T11:44:38.708Z,26.59
2023-04-30T11:45:38.646Z,26.59
2023-04-30T11:46:38.661Z,26.59
2023-04-30T11:47:38.660Z,26.59
2023-04-30T11:48:38.667Z,26.61
2023-04-30T11:49:38.629Z,26.53
2023-04-30T11:50:40.938Z,26.55
2023-04-30T11:51:38.595Z,26.59
2023-04-30T11:52:38.626Z,26.50
2023-04-30T11:53:38.695Z,26.59
2023-04-30T11:54:38.705Z,26.54
2023-04-30T11:55:38.738Z,26.53
2023-04-30T11:56:40.824Z,26.59
2023-04-30T11:57:38.947Z,26.50
2023-04-30T11:58:39.032Z,26.51
2023-04-30T11:59:38.999Z,26.47
2023-04-30T12:00:39.038Z,26.51
2023-04-30T12:01:39.112Z,26.47
2023-04-30T12:02:39.257Z,26.44
2023-04-30T12:03:39.288Z,26.53
2023-04-30T12:04:39.232Z,26.44
2023-04-30T12:05:39.225Z,26.50
2023-04-30T12:06:39.278Z,26.45
2023-04-30T12:07:39.300Z,26.51
2023-04-30T12:08:39.341Z,26.48
2023-04-30T12:09:39.376Z,26.52
2023-04-30T12:10:39.407Z,26.48
2023-04-30T12:11:39.448Z,26.45
2023-04-30T12:12:39.478Z,26.48
2023-04-30T12:13:39.531Z,26.46
2023-04-30T12:14:39.562Z,26.45
2023-04-30T12:15:39.593Z,26.43
2023-04-30T12:16:39.694Z,26.48
2023-04-30T12:17:39.733Z,26.50
2023-04-30T12:18:39.722Z,26.51
2023-04-30T12:19:39.781Z,26.48
2023-04-30T12:20:39.811Z,26.55
2023-04-30T12:21:39.854Z,26.46
2023-04-30T12:22:39.884Z,26.50
2023-04-30T12:23:39.959Z,26.47
2023-04-30T12:24:39.975Z,26.47
2023-04-30T12:25:40.018Z,26.45
2023-04-30T12:26:40.250Z,26.47
2023-04-30T12:27:40.113Z,26.46
2023-04-30T12:28:40.177Z,26.43
2023-04-30T12:29:40.220Z,26.46
2023-04-30T12:30:40.245Z,26.48
2023-04-30T12:31:40.347Z,26.34
2023-04-30T12:32:40.373Z,26.48
2023-04-30T12:33:40.399Z,26.37
2023-04-30T12:34:40.421Z,26.35
2023-04-30T12:35:40.526Z,26.39
2023-04-30T12:36:40.531Z,26.37
2023-04-30T12:37:40.553Z,26.35
2023-04-30T12:38:40.598Z,26.41
2023-04-30T12:39:40.672Z,26.31
2023-04-30T12:40:40.712Z,26.32
2023-04-30T12:41:40.745Z,26.34
2023-04-30T12:42:40.799Z,26.35
2023-04-30T12:43:40.848Z,26.37
2023-04-30T12:44:40.874Z,26.34
2023-04-30T12:45:40.965Z,26.28
2023-04-30T12:46:41.141Z,26.33
2023-04-30T12:47:41.049Z,26.25
2023-04-30T12:48:41.051Z,26.28
2023-04-30T12:49:41.095Z,26.27
2023-04-30T12:50:41.137Z,26.27
2023-04-30T12:51:41.185Z,26.31
2023-04-30T12:52:41.224Z,26.24